createdAt,value
2017-11-30T00:00:49.501Z,99261.05
2017-11-30T00:03:17.055Z,99261.29
2017-11-30T00:05:44.526Z,99260.88
2017-11-30T00:08:12.014Z,99255.90
2017-11-30T00:10:39.596Z,99257.35
2017-11-30T00:13:07.078Z,99255.25
2017-11-30T00:15:34.591Z,99246.72
2017-11-30T00:18:02.101Z,99250.67
2017-11-30T00:20:29.664Z,99247.24
2017-11-30T00:22:57.196Z,99242.26
2017-11-30T00:25:24.722Z,99242.67
2017-11-30T00:27:52.188Z,99248.19
2017-11-30T00:30:19.646Z,99243.71
2017-11-30T00:32:47.169Z,99247.92
2017-11-30T00:35:14.604Z,99241.86
2017-11-30T00:37:42.072Z,99244.75
2017-11-30T00:40:09.570Z,99242.52
2017-11-30T00:42:48.745Z,99238.17
2017-11-30T00:45:16.205Z,99245.41
2017-11-30T00:47:44.042Z,99239.48
2017-11-30T00:50:11.503Z,99239.21
2017-11-30T00:52:38.970Z,99240.53
2017-11-30T00:55:06.790Z,99246.47
2017-11-30T00:57:34.512Z,99239.50
2017-11-30T01:00:03.149Z,99241.63
2017-11-30T01:02:30.639Z,99243.31
2017-11-30T01:04:58.065Z,99249.89
2017-11-30T01:07:25.513Z,99242.00
2017-11-30T01:09:52.962Z,99244.53
2017-11-30T01:12:20.409Z,99238.61
2017-11-30T01:14:47.930Z,99243.36
2017-11-30T01:17:15.659Z,99236.78
2017-11-30T01:19:43.197Z,99231.66
2017-11-30T01:22:10.720Z,99229.03
2017-11-30T01:24:38.240Z,99232.44
2017-11-30T01:27:05.749Z,99227.18
2017-11-30T01:29:33.269Z,99231.53
2017-11-30T01:32:00.730Z,99219.16
2017-11-30T01:34:28.327Z,99229.94
2017-11-30T01:36:55.806Z,99230.85
2017-11-30T01:39:23.898Z,99232.03
2017-11-30T01:41:51.413Z,99227.03
2017-11-30T01:44:18.866Z,99228.34
2017-11-30T01:46:46.436Z,99230.56
2017-11-30T01:49:13.920Z,99235.58
2017-11-30T01:51:41.406Z,99235.17
2017-11-30T01:54:08.852Z,99237.53
2017-11-30T01:56:36.304Z,99235.18
2017-11-30T01:59:03.760Z,99230.84
2017-11-30T02:01:31.219Z,99242.39
2017-11-30T02:03:58.659Z,99241.89
2017-11-30T02:06:26.123Z,99235.33
2017-11-30T02:08:53.594Z,99232.97
2017-11-30T02:11:21.035Z,99227.58
2017-11-30T02:13:48.501Z,99229.16
2017-11-30T02:16:16.014Z,99224.67
2017-11-30T02:18:43.471Z,99226.63
2017-11-30T02:21:10.929Z,99227.03
2017-11-30T02:23:38.414Z,99216.92
2017-11-30T02:26:05.870Z,99218.63
2017-11-30T02:28:33.354Z,99222.30
2017-11-30T02:31:00.859Z,99221.25
2017-11-30T02:33:28.337Z,99215.45
2017-11-30T02:35:55.794Z,99215.17
2017-11-30T02:38:23.261Z,99213.73
2017-11-30T02:40:50.712Z,99213.59
2017-11-30T02:43:18.244Z,99214.80
2017-11-30T02:45:55.300Z,99213.20
2017-11-30T02:48:22.797Z,99211.62
2017-11-30T02:50:50.256Z,99220.79
2017-11-30T02:53:17.777Z,99221.18
2017-11-30T02:55:45.282Z,99219.17
2017-11-30T02:58:12.746Z,99220.48
2017-11-30T03:00:40.282Z,99214.86
2017-11-30T03:03:07.770Z,99210.80
2017-11-30T03:05:35.333Z,99207.13
2017-11-30T03:08:02.858Z,99203.95
2017-11-30T03:10:30.317Z,99200.64
2017-11-30T03:12:57.995Z,99195.16
2017-11-30T03:15:25.510Z,99199.61
2017-11-30T03:17:53.032Z,99207.89
2017-11-30T03:20:20.482Z,99206.84
2017-11-30T03:22:48.016Z,99207.50
2017-11-30T03:25:15.478Z,99217.88
2017-11-30T03:27:43.129Z,99214.71
2017-11-30T03:30:10.612Z,99211.67
2017-11-30T03:32:38.104Z,99204.20
2017-11-30T03:35:05.602Z,99201.03
2017-11-30T03:37:33.165Z,99205.36
2017-11-30T03:40:00.619Z,99202.59
2017-11-30T03:42:28.097Z,99195.25
2017-11-30T03:44:55.569Z,99205.85
2017-11-30T03:47:23.028Z,99202.41
2017-11-30T03:49:50.503Z,99200.30
2017-11-30T03:52:18.000Z,99191.52
2017-11-30T03:54:45.452Z,99195.19
2017-11-30T03:57:12.968Z,99196.48
2017-11-30T03:59:40.471Z,99190.95
2017-11-30T04:02:08.035Z,99198.83
2017-11-30T04:04:35.500Z,99195.80
2017-11-30T04:07:02.965Z,99196.34
2017-11-30T04:09:30.455Z,99192.64
2017-11-30T04:11:58.577Z,99193.68
2017-11-30T04:14:26.012Z,99192.37
2017-11-30T04:17:07.748Z,99184.64
2017-11-30T04:19:35.207Z,99187.64
2017-11-30T04:22:02.746Z,99182.64
2017-11-30T04:24:30.227Z,99185.13
2017-11-30T04:26:57.726Z,99189.33
2017-11-30T04:29:25.164Z,99192.86
2017-11-30T04:31:52.603Z,99194.56
2017-11-30T04:34:20.057Z,99202.30
2017-11-30T04:36:47.501Z,99187.22
2017-11-30T04:39:14.971Z,99186.83
2017-11-30T04:41:42.504Z,99188.80
2017-11-30T04:44:09.981Z,99203.34
2017-11-30T04:46:37.479Z,99201.49
2017-11-30T04:49:04.971Z,99190.61
2017-11-30T04:51:32.472Z,99201.20
2017-11-30T04:53:59.910Z,99192.30
2017-11-30T04:56:27.456Z,99197.53
2017-11-30T04:58:55.042Z,99201.84
2017-11-30T05:01:22.490Z,99200.26
2017-11-30T05:03:49.949Z,99195.92
2017-11-30T05:06:17.478Z,99198.55
2017-11-30T05:08:44.962Z,99197.64
2017-11-30T05:11:12.482Z,99194.11
2017-11-30T05:13:39.985Z,99188.49
2017-11-30T05:16:07.441Z,99187.18
2017-11-30T05:18:34.902Z,99191.14
2017-11-30T05:21:02.368Z,99198.45
2017-11-30T05:23:29.856Z,99190.06
2017-11-30T05:25:57.417Z,99195.67
2017-11-30T05:28:24.937Z,99202.00
2017-11-30T05:30:52.499Z,99196.83
2017-11-30T05:33:20.047Z,99198.27
2017-11-30T05:35:47.487Z,99195.89
2017-11-30T05:38:14.958Z,99198.38
2017-11-30T05:40:42.420Z,99199.95
2017-11-30T05:43:09.898Z,99200.09
2017-11-30T05:45:37.341Z,99191.16
2017-11-30T05:48:04.830Z,99191.30
2017-11-30T05:50:32.393Z,99191.56
2017-11-30T05:52:59.881Z,99188.91
2017-11-30T05:55:27.398Z,99194.01
2017-11-30T05:57:54.855Z,99190.98
2017-11-30T06:00:22.306Z,99185.35
2017-11-30T06:02:49.822Z,99186.37
2017-11-30T06:05:17.428Z,99189.52
2017-11-30T06:07:45.188Z,99192.13
2017-11-30T06:10:12.937Z,99192.47
2017-11-30T06:12:40.386Z,99191.41
2017-11-30T06:15:07.869Z,99194.23
2017-11-30T06:17:35.326Z,99184.13
2017-11-30T06:20:02.836Z,99184.01
2017-11-30T06:22:30.290Z,99182.95
2017-11-30T06:24:57.774Z,99183.64
2017-11-30T06:27:25.455Z,99183.86
2017-11-30T06:29:53.061Z,99184.38
2017-11-30T06:32:20.561Z,99184.89
2017-11-30T06:34:48.788Z,99188.95
2017-11-30T06:37:16.362Z,99185.25
2017-11-30T06:39:43.842Z,99185.77
2017-11-30T06:42:11.276Z,99181.13
2017-11-30T06:44:38.790Z,99188.75
2017-11-30T06:47:06.288Z,99178.11
2017-11-30T06:49:33.750Z,99185.45
2017-11-30T06:52:01.313Z,99182.95
2017-11-30T06:54:28.813Z,99188.48
2017-11-30T06:56:56.584Z,99184.27
2017-11-30T06:59:24.134Z,99190.52
2017-11-30T07:01:51.810Z,99184.76
2017-11-30T07:04:19.338Z,99191.67
2017-11-30T07:07:01.413Z,99192.34
2017-11-30T07:09:29.181Z,99187.10
2017-11-30T07:11:56.691Z,99189.59
2017-11-30T07:14:27.090Z,99193.65
2017-11-30T07:17:13.825Z,99194.55
2017-11-30T07:19:41.284Z,99187.38
2017-11-30T07:22:08.850Z,99189.06
2017-11-30T07:24:36.344Z,99189.20
2017-11-30T07:27:04.743Z,99189.91
2017-11-30T07:29:32.203Z,99192.29
2017-11-30T07:31:59.763Z,99187.59
2017-11-30T07:34:28.133Z,99180.36
2017-11-30T07:36:55.724Z,99187.68
2017-11-30T07:39:23.447Z,99186.46
2017-11-30T07:41:51.023Z,99186.97
2017-11-30T07:44:18.741Z,99181.09
2017-11-30T07:46:46.247Z,99180.28
2017-11-30T07:49:13.749Z,99172.72
2017-11-30T07:51:41.290Z,99173.41
2017-11-30T07:54:08.779Z,99182.33
2017-11-30T07:56:36.263Z,99173.45
2017-11-30T07:59:03.839Z,99178.95
2017-11-30T08:01:31.279Z,99178.99
2017-11-30T08:03:58.733Z,99176.41
2017-11-30T08:06:31.363Z,99174.68
2017-11-30T08:08:58.871Z,99172.70
2017-11-30T08:11:26.363Z,99170.89
2017-11-30T08:13:54.015Z,99175.50
2017-11-30T08:16:31.452Z,99168.68
2017-11-30T08:18:58.933Z,99172.91
2017-11-30T08:21:26.844Z,99176.59
2017-11-30T08:23:54.345Z,99170.73
2017-11-30T08:26:21.822Z,99174.81
2017-11-30T08:28:49.409Z,99174.80
2017-11-30T08:31:16.967Z,99180.31
2017-11-30T08:33:44.651Z,99177.03
2017-11-30T08:36:13.008Z,99176.90
2017-11-30T08:38:40.540Z,99177.67
2017-11-30T08:41:07.994Z,99171.81
2017-11-30T08:43:35.533Z,99172.98
2017-11-30T08:46:03.957Z,99176.54
2017-11-30T08:48:31.481Z,99173.02
2017-11-30T08:50:58.982Z,99176.98
2017-11-30T08:53:26.442Z,99178.55
2017-11-30T08:56:03.600Z,99182.75
2017-11-30T08:58:31.087Z,99182.75
2017-11-30T09:00:58.749Z,99187.73
2017-11-30T09:03:26.243Z,99186.42
2017-11-30T09:05:53.757Z,99190.77
2017-11-30T09:08:21.297Z,99188.55
2017-11-30T09:10:48.861Z,99186.55
2017-11-30T09:13:16.328Z,99183.00
2017-11-30T09:15:43.903Z,99183.27
2017-11-30T09:18:11.407Z,99187.36
2017-11-30T09:20:38.899Z,99186.34
2017-11-30T09:23:06.398Z,99187.40
2017-11-30T09:25:34.068Z,99190.97
2017-11-30T09:28:02.479Z,99186.02
2017-11-30T09:30:30.227Z,99186.95
2017-11-30T09:32:57.704Z,99189.59
2017-11-30T09:35:25.220Z,99186.85
2017-11-30T09:37:52.788Z,99189.51
2017-11-30T09:40:21.016Z,99184.67
2017-11-30T09:42:48.539Z,99187.56
2017-11-30T09:45:16.256Z,99182.41
2017-11-30T09:47:44.903Z,99192.27
2017-11-30T09:50:13.121Z,99191.22
2017-11-30T09:52:40.623Z,99189.62
2017-11-30T09:55:08.240Z,99187.25
2017-11-30T09:57:35.736Z,99186.45
2017-11-30T10:00:03.245Z,99185.13
2017-11-30T10:02:30.921Z,99189.85
2017-11-30T10:04:58.428Z,99190.50
2017-11-30T10:07:30.957Z,99192.77
2017-11-30T10:09:58.505Z,99190.37
2017-11-30T10:12:26.605Z,99187.39
2017-11-30T10:14:54.115Z,99182.41
2017-11-30T10:17:21.880Z,99182.59
2017-11-30T10:19:49.318Z,99182.73
2017-11-30T10:22:17.346Z,99180.65
2017-11-30T10:24:44.845Z,99181.69
2017-11-30T10:27:12.583Z,99179.70
2017-11-30T10:29:40.070Z,99186.80
2017-11-30T10:32:07.551Z,99184.70
2017-11-30T10:34:35.124Z,99186.15
2017-11-30T10:37:16.882Z,99183.25
2017-11-30T10:39:44.340Z,99184.70
2017-11-30T10:42:11.804Z,99175.52
2017-11-30T10:44:39.475Z,99175.66
2017-11-30T10:47:07.011Z,99170.94
2017-11-30T10:49:34.582Z,99179.23
2017-11-30T10:52:02.177Z,99170.99
2017-11-30T10:54:30.327Z,99165.01
2017-11-30T10:56:57.831Z,99164.23
2017-11-30T10:59:25.642Z,99169.75
2017-11-30T11:01:53.376Z,99167.67
2017-11-30T11:04:21.113Z,99168.57
2017-11-30T11:06:48.750Z,99174.86
2017-11-30T11:09:16.530Z,99168.16
2017-11-30T11:11:44.031Z,99169.59
2017-11-30T11:14:11.532Z,99166.97
2017-11-30T11:16:39.087Z,99170.25
2017-11-30T11:19:06.539Z,99179.03
2017-11-30T11:21:34.073Z,99175.23
2017-11-30T11:24:01.665Z,99173.65
2017-11-30T11:26:38.892Z,99166.30
2017-11-30T11:29:06.446Z,99170.48
2017-11-30T11:31:34.020Z,99165.23
2017-11-30T11:34:01.551Z,99167.88
2017-11-30T11:36:34.353Z,99161.73
2017-11-30T11:39:02.180Z,99159.66
2017-11-30T11:41:30.463Z,99157.69
2017-11-30T11:43:57.939Z,99153.75
2017-11-30T11:46:25.373Z,99154.03
2017-11-30T11:48:52.870Z,99157.30
2017-11-30T11:51:20.636Z,99148.95
2017-11-30T11:53:48.144Z,99149.05
2017-11-30T11:56:16.789Z,99151.88
2017-11-30T11:58:45.244Z,99152.02
2017-11-30T12:01:12.903Z,99144.34
2017-11-30T12:03:40.611Z,99145.34
2017-11-30T12:06:22.334Z,99144.70
2017-11-30T12:08:49.954Z,99146.16
2017-11-30T12:11:17.570Z,99148.12
2017-11-30T12:13:45.102Z,99152.70
2017-11-30T12:16:12.785Z,99147.77
2017-11-30T12:18:40.742Z,99152.45
2017-11-30T12:21:08.482Z,99141.31
2017-11-30T12:23:35.969Z,99142.77
2017-11-30T12:26:03.662Z,99141.56
2017-11-30T12:28:31.191Z,99141.80
2017-11-30T12:30:58.705Z,99146.44
2017-11-30T12:33:26.718Z,99143.63
2017-11-30T12:35:54.246Z,99154.63
2017-11-30T12:38:21.752Z,99154.56
2017-11-30T12:40:49.929Z,99152.34
2017-11-30T12:43:17.615Z,99150.51
2017-11-30T12:45:45.159Z,99151.13
2017-11-30T12:48:12.929Z,99144.12
2017-11-30T12:50:40.701Z,99139.47
2017-11-30T12:53:08.392Z,99138.08
2017-11-30T12:55:36.121Z,99137.32
2017-11-30T12:58:04.349Z,99141.08
2017-11-30T13:00:31.939Z,99133.16
2017-11-30T13:03:00.045Z,99132.07
2017-11-30T13:05:28.453Z,99129.09
2017-11-30T13:08:10.181Z,99126.40
2017-11-30T13:10:38.924Z,99133.55
2017-11-30T13:13:06.466Z,99136.47
2017-11-30T13:15:33.982Z,99130.55
2017-11-30T13:18:01.637Z,99128.05
2017-11-30T13:20:29.417Z,99133.84
2017-11-30T13:22:56.957Z,99127.42
2017-11-30T13:25:24.484Z,99128.34
2017-11-30T13:27:52.049Z,99128.36
2017-11-30T13:30:19.731Z,99129.94
2017-11-30T13:32:47.224Z,99129.03
2017-11-30T13:35:14.981Z,99128.37
2017-11-30T13:37:47.376Z,99120.89
2017-11-30T13:40:15.104Z,99127.07
2017-11-30T13:42:42.838Z,99127.75
2017-11-30T13:45:10.416Z,99130.23
2017-11-30T13:47:38.555Z,99136.52
2017-11-30T13:50:06.055Z,99132.17
2017-11-30T13:52:33.583Z,99126.65
2017-11-30T13:55:01.294Z,99134.53
2017-11-30T13:57:28.770Z,99133.37
2017-11-30T13:59:56.191Z,99136.27
2017-11-30T14:02:23.671Z,99139.70
2017-11-30T14:04:51.340Z,99143.75
2017-11-30T14:07:18.864Z,99144.02
2017-11-30T14:09:46.351Z,99143.52
2017-11-30T14:12:13.826Z,99137.33
2017-11-30T14:14:41.303Z,99143.64
2017-11-30T14:17:08.864Z,99142.84
2017-11-30T14:19:36.432Z,99143.23
2017-11-30T14:22:03.903Z,99145.33
2017-11-30T14:24:32.305Z,99144.96
2017-11-30T14:27:00.112Z,99148.77
2017-11-30T14:29:27.600Z,99146.92
2017-11-30T14:31:55.080Z,99147.70
2017-11-30T14:34:22.597Z,99148.77
2017-11-30T14:36:50.134Z,99147.19
2017-11-30T14:39:17.596Z,99146.01
2017-11-30T14:41:45.081Z,99143.25
2017-11-30T14:44:12.524Z,99151.52
2017-11-30T14:46:40.010Z,99150.72
2017-11-30T14:49:07.562Z,99156.77
2017-11-30T14:51:35.098Z,99156.77
2017-11-30T14:54:02.649Z,99161.34
2017-11-30T14:56:30.105Z,99155.59
2017-11-30T14:58:57.548Z,99157.26
2017-11-30T15:01:25.045Z,99157.00
2017-11-30T15:03:52.542Z,99160.94
2017-11-30T15:06:20.064Z,99163.69
2017-11-30T15:08:47.903Z,99167.08
2017-11-30T15:11:15.531Z,99171.01
2017-11-30T15:13:43.012Z,99169.69
2017-11-30T15:16:10.519Z,99165.88
2017-11-30T15:18:37.976Z,99171.12
2017-11-30T15:21:05.487Z,99167.44
2017-11-30T15:23:34.035Z,99167.03
2017-11-30T15:26:01.515Z,99170.83
2017-11-30T15:28:29.014Z,99172.67
2017-11-30T15:30:56.509Z,99173.98
2017-11-30T15:33:24.072Z,99176.60
2017-11-30T15:35:51.727Z,99177.78
2017-11-30T15:38:19.174Z,99178.17
2017-11-30T15:40:46.716Z,99177.63
2017-11-30T15:43:14.266Z,99186.03
2017-11-30T15:45:41.970Z,99181.69
2017-11-30T15:48:09.548Z,99186.39
2017-11-30T15:50:37.339Z,99183.89
2017-11-30T15:53:04.974Z,99187.31
2017-11-30T15:55:32.444Z,99191.24
2017-11-30T15:57:59.972Z,99190.70
2017-11-30T16:00:27.825Z,99191.98
2017-11-30T16:02:55.464Z,99188.97
2017-11-30T16:05:23.842Z,99191.98
2017-11-30T16:07:51.366Z,99194.75
2017-11-30T16:10:19.075Z,99196.31
2017-11-30T16:12:46.798Z,99192.11
2017-11-30T16:15:14.305Z,99197.49
2017-11-30T16:17:41.905Z,99204.19
2017-11-30T16:20:10.597Z,99203.28
2017-11-30T16:22:38.283Z,99200.25
2017-11-30T16:25:05.818Z,99208.24
2017-11-30T16:27:33.327Z,99215.69
2017-11-30T16:30:00.808Z,99220.80
2017-11-30T16:32:28.436Z,99224.09
2017-11-30T16:34:55.992Z,99224.58
2017-11-30T16:37:23.482Z,99225.77
2017-11-30T16:39:51.057Z,99229.32
2017-11-30T16:42:18.577Z,99231.01
2017-11-30T16:44:46.107Z,99232.17
2017-11-30T16:47:13.692Z,99234.64
2017-11-30T16:49:41.378Z,99235.66
2017-11-30T16:52:09.026Z,99247.84
2017-11-30T16:54:36.675Z,99241.77
2017-11-30T16:57:09.298Z,99243.62
2017-11-30T16:59:40.558Z,99247.41
2017-11-30T17:02:08.404Z,99247.41
2017-11-30T17:04:36.036Z,99252.12
2017-11-30T17:07:13.206Z,99251.76
2017-11-30T17:09:40.721Z,99257.00
2017-11-30T17:12:08.378Z,99256.06
2017-11-30T17:14:35.968Z,99255.55
2017-11-30T17:17:03.475Z,99263.00
2017-11-30T17:19:31.366Z,99261.67
2017-11-30T17:21:59.015Z,99272.53
2017-11-30T17:24:26.581Z,99265.03
2017-11-30T17:26:58.664Z,99265.83
2017-11-30T17:29:26.210Z,99269.61
2017-11-30T17:31:53.816Z,99273.10
2017-11-30T17:34:22.168Z,99275.20
2017-11-30T17:37:01.565Z,99278.06
2017-11-30T17:39:29.107Z,99287.84
2017-11-30T17:41:56.775Z,99286.78
2017-11-30T17:44:24.384Z,99293.19
2017-11-30T17:46:52.059Z,99296.60
2017-11-30T17:49:19.657Z,99298.70
2017-11-30T17:51:47.263Z,99300.14
2017-11-30T17:54:15.472Z,99302.20
2017-11-30T17:56:43.036Z,99298.13
2017-11-30T17:59:10.692Z,99296.31
2017-11-30T18:01:39.080Z,99296.41
2017-11-30T18:04:06.561Z,99305.33
2017-11-30T18:06:48.572Z,99313.44
2017-11-30T18:09:16.060Z,99310.77
2017-11-30T18:11:43.545Z,99311.73
2017-11-30T18:14:11.052Z,99311.84
2017-11-30T18:16:38.548Z,99314.30
2017-11-30T18:19:06.086Z,99316.39
2017-11-30T18:21:33.608Z,99311.53
2017-11-30T18:24:01.124Z,99307.86
2017-11-30T18:26:28.570Z,99313.73
2017-11-30T18:29:06.530Z,99314.64
2017-11-30T18:31:34.184Z,99319.59
2017-11-30T18:34:01.695Z,99327.61
2017-11-30T18:36:29.260Z,99326.83
2017-11-30T18:38:56.809Z,99332.47
2017-11-30T18:41:24.340Z,99330.75
2017-11-30T18:43:51.839Z,99329.14
2017-11-30T18:46:19.652Z,99330.98
2017-11-30T18:48:47.397Z,99329.67
2017-11-30T18:51:14.918Z,99329.05
2017-11-30T18:53:42.469Z,99333.88
2017-11-30T18:56:10.032Z,99336.50
2017-11-30T18:58:37.648Z,99339.88
2017-11-30T19:01:05.246Z,99337.80
2017-11-30T19:03:32.739Z,99340.33
2017-11-30T19:06:00.868Z,99342.44
2017-11-30T19:08:28.370Z,99339.52
2017-11-30T19:10:56.114Z,99341.05
2017-11-30T19:13:23.731Z,99347.09
2017-11-30T19:15:51.299Z,99342.73
2017-11-30T19:18:18.752Z,99346.09
2017-11-30T19:20:46.301Z,99347.67
2017-11-30T19:23:13.769Z,99353.72
2017-11-30T19:25:41.575Z,99358.02
2017-11-30T19:28:10.067Z,99359.77
2017-11-30T19:30:37.648Z,99363.69
2017-11-30T19:33:05.155Z,99364.57
2017-11-30T19:35:32.625Z,99372.98
2017-11-30T19:38:00.171Z,99370.14
2017-11-30T19:40:27.653Z,99375.13
2017-11-30T19:42:55.220Z,99378.70
2017-11-30T19:45:22.910Z,99378.70
2017-11-30T19:47:50.486Z,99381.20
2017-11-30T19:50:17.937Z,99386.94
2017-11-30T19:52:45.560Z,99385.10
2017-11-30T19:55:13.126Z,99389.56
2017-11-30T19:57:40.684Z,99390.47
2017-11-30T20:00:08.280Z,99397.48
2017-11-30T20:02:35.807Z,99394.99
2017-11-30T20:05:03.309Z,99398.02
2017-11-30T20:07:31.066Z,99402.07
2017-11-30T20:09:58.624Z,99401.54
2017-11-30T20:12:26.150Z,99401.02
2017-11-30T20:14:53.734Z,99405.84
2017-11-30T20:17:21.264Z,99411.18
2017-11-30T20:19:48.765Z,99416.41
2017-11-30T20:22:16.280Z,99416.14
2017-11-30T20:24:43.967Z,99426.73
2017-11-30T20:27:16.544Z,99414.98
2017-11-30T20:29:44.047Z,99421.03
2017-11-30T20:32:11.616Z,99417.13
2017-11-30T20:34:39.131Z,99426.85
2017-11-30T20:37:06.765Z,99437.11
2017-11-30T20:39:34.525Z,99433.95
2017-11-30T20:42:03.372Z,99443.66
2017-11-30T20:44:30.948Z,99442.34
2017-11-30T20:46:58.517Z,99445.40
2017-11-30T20:49:26.309Z,99440.81
2017-11-30T20:51:53.894Z,99441.81
2017-11-30T20:54:21.363Z,99439.07
2017-11-30T20:56:54.004Z,99446.37
2017-11-30T20:59:21.641Z,99440.85
2017-11-30T21:01:49.229Z,99444.31
2017-11-30T21:04:16.700Z,99447.15
2017-11-30T21:06:44.247Z,99446.91
2017-11-30T21:09:12.324Z,99447.30
2017-11-30T21:11:39.774Z,99445.72
2017-11-30T21:14:07.244Z,99442.84
2017-11-30T21:16:34.807Z,99445.19
2017-11-30T21:19:02.280Z,99442.16
2017-11-30T21:21:29.750Z,99447.80
2017-11-30T21:23:57.256Z,99453.02
2017-11-30T21:26:24.762Z,99447.49
2017-11-30T21:28:52.260Z,99447.91
2017-11-30T21:31:19.733Z,99448.68
2017-11-30T21:33:47.229Z,99446.49
2017-11-30T21:36:14.744Z,99446.80
2017-11-30T21:38:42.194Z,99448.52
2017-11-30T21:41:09.782Z,99453.28
2017-11-30T21:43:37.313Z,99459.17
2017-11-30T21:46:04.829Z,99462.48
2017-11-30T21:48:33.129Z,99466.78
2017-11-30T21:51:00.653Z,99466.03
2017-11-30T21:53:28.131Z,99468.53
2017-11-30T21:55:55.712Z,99470.87
2017-11-30T21:58:23.154Z,99471.15
2017-11-30T22:00:50.658Z,99480.04
2017-11-30T22:03:18.199Z,99472.02
2017-11-30T22:05:46.213Z,99477.38
2017-11-30T22:08:13.750Z,99482.92
2017-11-30T22:10:41.202Z,99485.14
2017-11-30T22:13:08.755Z,99487.89
2017-11-30T22:15:36.229Z,99490.38
2017-11-30T22:18:03.727Z,99484.64
2017-11-30T22:20:31.261Z,99484.08
2017-11-30T22:22:58.785Z,99486.58
2017-11-30T22:25:26.413Z,99478.19
2017-11-30T22:27:53.937Z,99485.02
2017-11-30T22:30:21.388Z,99489.30
2017-11-30T22:32:48.939Z,99479.62
2017-11-30T22:35:16.444Z,99485.92
2017-11-30T22:37:43.999Z,99485.55
2017-11-30T22:40:11.456Z,99487.27
2017-11-30T22:42:38.912Z,99484.11
2017-11-30T22:45:06.446Z,99485.83
2017-11-30T22:47:33.932Z,99486.83
2017-11-30T22:50:01.422Z,99489.86
2017-11-30T22:52:28.919Z,99490.13
2017-11-30T22:54:56.380Z,99494.44
2017-11-30T22:57:23.831Z,99505.35
2017-11-30T22:59:51.406Z,99495.84
2017-11-30T23:02:18.892Z,99499.88
2017-11-30T23:04:46.400Z,99500.02
2017-11-30T23:07:13.937Z,99499.22
2017-11-30T23:09:41.492Z,99494.10
2017-11-30T23:12:08.985Z,99498.25
2017-11-30T23:14:36.617Z,99497.06
2017-11-30T23:17:04.442Z,99501.80
2017-11-30T23:19:35.753Z,99503.39
2017-11-30T23:22:03.304Z,99510.47
2017-11-30T23:24:30.803Z,99504.39
2017-11-30T23:27:08.072Z,99514.31
2017-11-30T23:29:35.832Z,99516.75
2017-11-30T23:32:03.350Z,99515.56
2017-11-30T23:34:30.815Z,99514.66
2017-11-30T23:36:58.407Z,99516.59
2017-11-30T23:39:25.950Z,99517.65
2017-11-30T23:41:53.617Z,99521.73
2017-11-30T23:44:21.112Z,99526.98
2017-11-30T23:46:48.757Z,99525.77
2017-11-30T23:49:16.304Z,99527.55
2017-11-30T23:51:43.793Z,99524.23
2017-11-30T23:54:11.299Z,99523.86
2017-11-30T23:56:39.105Z,99518.72
2017-11-30T23:59:06.576Z,99521.39
